Hauptseite
METAR-TAF:

METAR-TAF

Flughäfen :

Puerto Peñasco, Mexiko

Breite: 31-21-07N, Länge: 113-18-20W, Höhe: 22 m

Beobachtung

Neuester Wetterbericht von vor 1 Stunde und 58 Minuten, um 22:40 UTC
Wind 13 kt aus Süd/Südwest
Temperatur 37°C
Luftfeuchtigkeit 33%
Luftdruck 1006 hPa
Sichtweite: 16.1 km
Leicht bewölkt in der Höhe von 20000 ft

METAR: MMPE 222240Z 21013KT 10SM FEW200 37/18 A2970 RMK 8/001

Zeit: 17:38 (00:38 UTC)


TAF: fehlend

Wetterbeobachtungen und Prognosen von mehr als 4000 Flughäfen (METAR und TAF Bericht).

Die verfügbaren Stationen werden durch gelbe und rote Markierungen auf der Karte dargestellt.

Führen Sie die Maus auf sie, um den Namen der Station zu sehen.

Darauf klicken, um die Beobachtung von Wetterbeobachtungen und Prognosen zu sehen.

Um die Karte zu ändern : klicken Sie auf den grünen Tasten mit einem schwarzen Kreuz Zum Vergrößern, auf den grünen Button mit einem Gedankenstrich zu verkleinern, oder auf die grünen Pfeile für benachbarte Karten.


METAR-TAF: